sensor_id;sensor_type;location;lat;lon;timestamp;pressure;altitude;pressure_sealevel;temperature
71807;BMP280;59655;42.590;23.364;2022-07-10T00:01:03;91517.22;;;15.05
71807;BMP280;59655;42.590;23.364;2022-07-10T00:03:29;91511.75;;;15.03
71807;BMP280;59655;42.590;23.364;2022-07-10T00:05:54;91510.19;;;14.90
71807;BMP280;59655;42.590;23.364;2022-07-10T00:08:20;91508.78;;;14.99
71807;BMP280;59655;42.590;23.364;2022-07-10T00:10:45;91508.66;;;15.06
71807;BMP280;59655;42.590;23.364;2022-07-10T00:13:10;91500.50;;;14.94
71807;BMP280;59655;42.590;23.364;2022-07-10T00:15:36;91500.34;;;14.83
71807;BMP280;59655;42.590;23.364;2022-07-10T00:18:01;91499.50;;;14.90
71807;BMP280;59655;42.590;23.364;2022-07-10T00:20:27;91506.97;;;14.91
71807;BMP280;59655;42.590;23.364;2022-07-10T00:22:52;91497.22;;;14.96
71807;BMP280;59655;42.590;23.364;2022-07-10T00:25:18;91501.47;;;14.99
71807;BMP280;59655;42.590;23.364;2022-07-10T00:27:43;91492.34;;;14.92
71807;BMP280;59655;42.590;23.364;2022-07-10T00:30:10;91485.31;;;14.87
71807;BMP280;59655;42.590;23.364;2022-07-10T00:32:36;91482.63;;;14.78
71807;BMP280;59655;42.590;23.364;2022-07-10T00:35:01;91485.88;;;14.76
71807;BMP280;59655;42.590;23.364;2022-07-10T00:37:30;91477.97;;;14.78
71807;BMP280;59655;42.590;23.364;2022-07-10T00:39:55;91478.41;;;14.65
71807;BMP280;59655;42.590;23.364;2022-07-10T00:42:21;91483.34;;;14.59
71807;BMP280;59655;42.590;23.364;2022-07-10T00:44:46;91478.81;;;14.51
71807;BMP280;59655;42.590;23.364;2022-07-10T00:47:12;91480.09;;;14.41
71807;BMP280;59655;42.590;23.364;2022-07-10T00:49:39;91484.00;;;14.49
71807;BMP280;59655;42.590;23.364;2022-07-10T00:52:10;91484.13;;;14.42
71807;BMP280;59655;42.590;23.364;2022-07-10T00:54:37;91484.41;;;14.36
71807;BMP280;59655;42.590;23.364;2022-07-10T00:57:04;91480.50;;;14.37
71807;BMP280;59655;42.590;23.364;2022-07-10T00:59:34;91472.38;;;14.35
71807;BMP280;59655;42.590;23.364;2022-07-10T01:02:01;91472.63;;;14.39
71807;BMP280;59655;42.590;23.364;2022-07-10T01:04:26;91463.19;;;14.38
71807;BMP280;59655;42.590;23.364;2022-07-10T01:06:52;91468.66;;;14.31
71807;BMP280;59655;42.590;23.364;2022-07-10T01:09:18;91463.94;;;14.29
71807;BMP280;59655;42.590;23.364;2022-07-10T01:11:43;91460.81;;;14.33
71807;BMP280;59655;42.590;23.364;2022-07-10T01:14:09;91461.25;;;14.29
71807;BMP280;59655;42.590;23.364;2022-07-10T01:16:35;91461.38;;;14.31
71807;BMP280;59655;42.590;23.364;2022-07-10T01:19:00;91459.69;;;14.36
71807;BMP280;59655;42.590;23.364;2022-07-10T01:21:28;91464.88;;;14.24
71807;BMP280;59655;42.590;23.364;2022-07-10T01:23:53;91457.56;;;14.24
71807;BMP280;59655;42.590;23.364;2022-07-10T01:26:20;91461.22;;;14.19
71807;BMP280;59655;42.590;23.364;2022-07-10T01:28:48;91459.81;;;14.18
71807;BMP280;59655;42.590;23.364;2022-07-10T01:31:14;91456.16;;;14.14
71807;BMP280;59655;42.590;23.364;2022-07-10T01:33:40;91454.34;;;14.16
71807;BMP280;59655;42.590;23.364;2022-07-10T01:36:07;91448.56;;;14.10
71807;BMP280;59655;42.590;23.364;2022-07-10T01:38:32;91441.81;;;14.09
71807;BMP280;59655;42.590;23.364;2022-07-10T01:40:58;91432.53;;;14.00
71807;BMP280;59655;42.590;23.364;2022-07-10T01:43:23;91439.53;;;13.96
71807;BMP280;59655;42.590;23.364;2022-07-10T01:45:49;91439.13;;;13.99
71807;BMP280;59655;42.590;23.364;2022-07-10T01:48:14;91435.63;;;14.06
71807;BMP280;59655;42.590;23.364;2022-07-10T01:50:39;91432.25;;;14.06
71807;BMP280;59655;42.590;23.364;2022-07-10T01:53:05;91434.19;;;13.96
71807;BMP280;59655;42.590;23.364;2022-07-10T01:55:31;91434.09;;;14.03
71807;BMP280;59655;42.590;23.364;2022-07-10T01:57:58;91426.53;;;14.10
71807;BMP280;59655;42.590;23.364;2022-07-10T02:00:23;91433.94;;;14.01
71807;BMP280;59655;42.590;23.364;2022-07-10T02:02:49;91428.16;;;13.95
71807;BMP280;59655;42.590;23.364;2022-07-10T02:05:33;91422.41;;;13.99
71807;BMP280;59655;42.590;23.364;2022-07-10T02:07:59;91423.91;;;13.92
71807;BMP280;59655;42.590;23.364;2022-07-10T02:10:24;91422.41;;;13.89
71807;BMP280;59655;42.590;23.364;2022-07-10T02:12:50;91420.69;;;13.84
71807;BMP280;59655;42.590;23.364;2022-07-10T02:15:15;91420.97;;;13.88
71807;BMP280;59655;42.590;23.364;2022-07-10T02:17:41;91417.22;;;13.91
71807;BMP280;59655;42.590;23.364;2022-07-10T02:20:06;91421.13;;;13.90
71807;BMP280;59655;42.590;23.364;2022-07-10T02:22:33;91414.13;;;13.95
71807;BMP280;59655;42.590;23.364;2022-07-10T02:24:59;91412.84;;;13.96
71807;BMP280;59655;42.590;23.364;2022-07-10T02:27:24;91414.53;;;13.91
71807;BMP280;59655;42.590;23.364;2022-07-10T02:29:50;91420.13;;;13.86
71807;BMP280;59655;42.590;23.364;2022-07-10T02:32:15;91414.25;;;13.87
71807;BMP280;59655;42.590;23.364;2022-07-10T02:34:40;91413.25;;;13.82
71807;BMP280;59655;42.590;23.364;2022-07-10T02:37:06;91412.81;;;13.86
71807;BMP280;59655;42.590;23.364;2022-07-10T02:39:31;91406.34;;;13.79
71807;BMP280;59655;42.590;23.364;2022-07-10T02:41:57;91418.72;;;13.84
71807;BMP280;59655;42.590;23.364;2022-07-10T02:44:22;91416.22;;;13.87
71807;BMP280;59655;42.590;23.364;2022-07-10T02:46:47;91419.88;;;13.91
71807;BMP280;59655;42.590;23.364;2022-07-10T02:49:13;91424.38;;;13.89
71807;BMP280;59655;42.590;23.364;2022-07-10T02:51:38;91420.56;;;13.92
71807;BMP280;59655;42.590;23.364;2022-07-10T02:54:03;91421.41;;;13.84
71807;BMP280;59655;42.590;23.364;2022-07-10T02:56:29;91425.59;;;13.88
71807;BMP280;59655;42.590;23.364;2022-07-10T02:58:54;91423.50;;;13.86
71807;BMP280;59655;42.590;23.364;2022-07-10T03:01:20;91428.97;;;13.88
71807;BMP280;59655;42.590;23.364;2022-07-10T03:03:45;91429.69;;;13.89
71807;BMP280;59655;42.590;23.364;2022-07-10T03:06:11;91441.50;;;13.95
71807;BMP280;59655;42.590;23.364;2022-07-10T03:08:37;91437.31;;;14.02
71807;BMP280;59655;42.590;23.364;2022-07-10T03:11:02;91438.03;;;14.12
71807;BMP280;59655;42.590;23.364;2022-07-10T03:13:28;91438.72;;;14.03
71807;BMP280;59655;42.590;23.364;2022-07-10T03:15:54;91435.31;;;13.83
71807;BMP280;59655;42.590;23.364;2022-07-10T03:18:20;91442.31;;;13.88
71807;BMP280;59655;42.590;23.364;2022-07-10T03:20:45;91435.16;;;13.81
71807;BMP280;59655;42.590;23.364;2022-07-10T03:23:10;91438.50;;;13.81
71807;BMP280;59655;42.590;23.364;2022-07-10T03:25:36;91439.66;;;13.88
71807;BMP280;59655;42.590;23.364;2022-07-10T03:28:01;91444.59;;;13.92
71807;BMP280;59655;42.590;23.364;2022-07-10T03:30:27;91443.59;;;13.87
71807;BMP280;59655;42.590;23.364;2022-07-10T03:32:52;91443.75;;;13.99
71807;BMP280;59655;42.590;23.364;2022-07-10T03:35:18;91440.56;;;14.10
71807;BMP280;59655;42.590;23.364;2022-07-10T03:37:43;91443.25;;;14.10
71807;BMP280;59655;42.590;23.364;2022-07-10T03:40:09;91440.84;;;14.14
71807;BMP280;59655;42.590;23.364;2022-07-10T03:42:34;91438.34;;;14.16
71807;BMP280;59655;42.590;23.364;2022-07-10T03:45:00;91442.81;;;14.23
71807;BMP280;59655;42.590;23.364;2022-07-10T03:47:25;91436.91;;;14.25
71807;BMP280;59655;42.590;23.364;2022-07-10T03:49:51;91440.84;;;14.24
71807;BMP280;59655;42.590;23.364;2022-07-10T03:52:16;91442.41;;;14.27
71807;BMP280;59655;42.590;23.364;2022-07-10T03:54:41;91436.78;;;14.33
71807;BMP280;59655;42.590;23.364;2022-07-10T03:57:07;91431.75;;;14.37
71807;BMP280;59655;42.590;23.364;2022-07-10T03:59:51;91438.91;;;14.34
71807;BMP280;59655;42.590;23.364;2022-07-10T04:02:16;91427.09;;;14.37
71807;BMP280;59655;42.590;23.364;2022-07-10T04:04:42;91432.75;;;14.41
71807;BMP280;59655;42.590;23.364;2022-07-10T04:07:07;91426.13;;;14.42
71807;BMP280;59655;42.590;23.364;2022-07-10T04:09:33;91427.25;;;14.49
71807;BMP280;59655;42.590;23.364;2022-07-10T04:11:58;91423.16;;;14.58
71807;BMP280;59655;42.590;23.364;2022-07-10T04:14:23;91430.19;;;14.63
71807;BMP280;59655;42.590;23.364;2022-07-10T04:16:49;91421.63;;;14.64
71807;BMP280;59655;42.590;23.364;2022-07-10T04:19:14;91420.38;;;14.75
71807;BMP280;59655;42.590;23.364;2022-07-10T04:21:40;91415.84;;;14.78
71807;BMP280;59655;42.590;23.364;2022-07-10T04:24:06;91424.84;;;14.82
71807;BMP280;59655;42.590;23.364;2022-07-10T04:26:32;91404.72;;;14.91
71807;BMP280;59655;42.590;23.364;2022-07-10T04:28:57;91420.34;;;14.94
71807;BMP280;59655;42.590;23.364;2022-07-10T04:31:22;91408.38;;;14.95
71807;BMP280;59655;42.590;23.364;2022-07-10T04:33:48;91416.13;;;15.01
71807;BMP280;59655;42.590;23.364;2022-07-10T04:36:13;91421.56;;;15.03
71807;BMP280;59655;42.590;23.364;2022-07-10T04:38:39;91417.50;;;15.02
71807;BMP280;59655;42.590;23.364;2022-07-10T04:41:04;91415.13;;;15.06
71807;BMP280;59655;42.590;23.364;2022-07-10T04:43:30;91409.19;;;15.08
71807;BMP280;59655;42.590;23.364;2022-07-10T04:45:56;91413.16;;;14.97
71807;BMP280;59655;42.590;23.364;2022-07-10T04:48:21;91414.97;;;15.04
71807;BMP280;59655;42.590;23.364;2022-07-10T04:50:47;91416.09;;;15.11
71807;BMP280;59655;42.590;23.364;2022-07-10T04:53:12;91416.34;;;15.15
71807;BMP280;59655;42.590;23.364;2022-07-10T04:55:37;91418.06;;;15.10
71807;BMP280;59655;42.590;23.364;2022-07-10T04:58:03;91415.22;;;15.18
71807;BMP280;59655;42.590;23.364;2022-07-10T05:00:28;91419.88;;;15.17
71807;BMP280;59655;42.590;23.364;2022-07-10T05:02:53;91417.72;;;15.26
71807;BMP280;59655;42.590;23.364;2022-07-10T05:05:19;91406.00;;;15.31
71807;BMP280;59655;42.590;23.364;2022-07-10T05:07:44;91412.09;;;15.31
71807;BMP280;59655;42.590;23.364;2022-07-10T05:10:10;91415.16;;;15.37
71807;BMP280;59655;42.590;23.364;2022-07-10T05:12:35;91411.38;;;15.40
71807;BMP280;59655;42.590;23.364;2022-07-10T05:15:01;91416.25;;;15.44
71807;BMP280;59655;42.590;23.364;2022-07-10T05:17:27;91418.47;;;15.48
71807;BMP280;59655;42.590;23.364;2022-07-10T05:19:57;91410.75;;;15.52
71807;BMP280;59655;42.590;23.364;2022-07-10T05:22:23;91409.75;;;15.57
71807;BMP280;59655;42.590;23.364;2022-07-10T05:24:49;91402.66;;;15.61
71807;BMP280;59655;42.590;23.364;2022-07-10T05:27:14;91398.19;;;15.64
71807;BMP280;59655;42.590;23.364;2022-07-10T05:29:43;91396.31;;;15.67
71807;BMP280;59655;42.590;23.364;2022-07-10T05:32:08;91399.81;;;15.69
71807;BMP280;59655;42.590;23.364;2022-07-10T05:34:33;91396.16;;;15.74
71807;BMP280;59655;42.590;23.364;2022-07-10T05:36:59;91404.28;;;15.76
71807;BMP280;59655;42.590;23.364;2022-07-10T05:39:24;91406.84;;;15.74
71807;BMP280;59655;42.590;23.364;2022-07-10T05:41:52;91414.56;;;15.80
71807;BMP280;59655;42.590;23.364;2022-07-10T05:44:18;91402.44;;;15.79
71807;BMP280;59655;42.590;23.364;2022-07-10T05:46:45;91395.25;;;15.81
71807;BMP280;59655;42.590;23.364;2022-07-10T05:49:10;91400.72;;;15.83
71807;BMP280;59655;42.590;23.364;2022-07-10T05:51:36;91393.66;;;15.88
71807;BMP280;59655;42.590;23.364;2022-07-10T05:54:01;91406.63;;;15.92
71807;BMP280;59655;42.590;23.364;2022-07-10T05:56:28;91402.78;;;15.95
71807;BMP280;59655;42.590;23.364;2022-07-10T05:58:53;91403.19;;;16.01
71807;BMP280;59655;42.590;23.364;2022-07-10T06:01:21;91406.94;;;16.07
71807;BMP280;59655;42.590;23.364;2022-07-10T06:03:46;91401.69;;;16.09
71807;BMP280;59655;42.590;23.364;2022-07-10T06:06:12;91415.94;;;16.12
71807;BMP280;59655;42.590;23.364;2022-07-10T06:08:40;91413.63;;;16.18
71807;BMP280;59655;42.590;23.364;2022-07-10T06:11:06;91404.69;;;16.25
71807;BMP280;59655;42.590;23.364;2022-07-10T06:13:32;91420.16;;;16.27
71807;BMP280;59655;42.590;23.364;2022-07-10T06:15:57;91410.88;;;16.28
71807;BMP280;59655;42.590;23.364;2022-07-10T06:18:22;91414.63;;;16.35
71807;BMP280;59655;42.590;23.364;2022-07-10T06:20:48;91411.13;;;16.32
71807;BMP280;59655;42.590;23.364;2022-07-10T06:23:13;91409.88;;;16.33
71807;BMP280;59655;42.590;23.364;2022-07-10T06:25:39;91410.00;;;16.35
71807;BMP280;59655;42.590;23.364;2022-07-10T06:28:04;91413.94;;;16.34
71807;BMP280;59655;42.590;23.364;2022-07-10T06:30:30;91404.03;;;16.37
71807;BMP280;59655;42.590;23.364;2022-07-10T06:32:55;91401.03;;;16.42
71807;BMP280;59655;42.590;23.364;2022-07-10T06:35:21;91397.78;;;16.44
71807;BMP280;59655;42.590;23.364;2022-07-10T06:37:46;91408.03;;;16.47
71807;BMP280;59655;42.590;23.364;2022-07-10T06:40:13;91411.66;;;16.52
71807;BMP280;59655;42.590;23.364;2022-07-10T06:42:39;91409.09;;;16.54
71807;BMP280;59655;42.590;23.364;2022-07-10T06:45:05;91413.06;;;16.53
71807;BMP280;59655;42.590;23.364;2022-07-10T06:47:31;91409.28;;;16.56
71807;BMP280;59655;42.590;23.364;2022-07-10T06:50:15;91418.66;;;16.57
71807;BMP280;59655;42.590;23.364;2022-07-10T06:52:40;91405.66;;;16.63
71807;BMP280;59655;42.590;23.364;2022-07-10T06:55:06;91409.28;;;16.68
71807;BMP280;59655;42.590;23.364;2022-07-10T06:57:32;91407.31;;;16.68
71807;BMP280;59655;42.590;23.364;2022-07-10T06:59:57;91407.56;;;16.72
71807;BMP280;59655;42.590;23.364;2022-07-10T07:02:22;91409.91;;;16.78
71807;BMP280;59655;42.590;23.364;2022-07-10T07:04:48;91410.16;;;16.82
71807;BMP280;59655;42.590;23.364;2022-07-10T07:07:14;91403.53;;;16.83
71807;BMP280;59655;42.590;23.364;2022-07-10T07:09:40;91402.91;;;16.85
71807;BMP280;59655;42.590;23.364;2022-07-10T07:12:06;91405.97;;;16.91
71807;BMP280;59655;42.590;23.364;2022-07-10T07:14:32;91400.97;;;16.97
71807;BMP280;59655;42.590;23.364;2022-07-10T07:16:58;91403.09;;;16.98
71807;BMP280;59655;42.590;23.364;2022-07-10T07:19:34;91402.13;;;17.06
71807;BMP280;59655;42.590;23.364;2022-07-10T07:22:23;91395.41;;;17.16
71807;BMP280;59655;42.590;23.364;2022-07-10T07:25:08;91401.72;;;17.33
71807;BMP280;59655;42.590;23.364;2022-07-10T07:27:37;91398.13;;;17.40
71807;BMP280;59655;42.590;23.364;2022-07-10T07:30:05;91399.97;;;17.49
71807;BMP280;59655;42.590;23.364;2022-07-10T07:32:32;91406.72;;;17.50
71807;BMP280;59655;42.590;23.364;2022-07-10T07:34:58;91394.03;;;17.51
71807;BMP280;59655;42.590;23.364;2022-07-10T07:37:48;91400.44;;;17.57
71807;BMP280;59655;42.590;23.364;2022-07-10T07:40:16;91388.66;;;17.62
71807;BMP280;59655;42.590;23.364;2022-07-10T07:42:41;91397.28;;;17.61
71807;BMP280;59655;42.590;23.364;2022-07-10T07:45:08;91402.06;;;17.62
71807;BMP280;59655;42.590;23.364;2022-07-10T07:47:48;91401.50;;;17.64
71807;BMP280;59655;42.590;23.364;2022-07-10T07:50:17;91402.06;;;17.62
71807;BMP280;59655;42.590;23.364;2022-07-10T07:52:44;91405.66;;;17.67
71807;BMP280;59655;42.590;23.364;2022-07-10T07:55:10;91407.88;;;17.70
71807;BMP280;59655;42.590;23.364;2022-07-10T07:57:36;91412.81;;;17.74
71807;BMP280;59655;42.590;23.364;2022-07-10T08:00:02;91405.31;;;17.73
71807;BMP280;59655;42.590;23.364;2022-07-10T08:02:28;91407.53;;;17.76
71807;BMP280;59655;42.590;23.364;2022-07-10T08:04:54;91399.47;;;17.76
71807;BMP280;59655;42.590;23.364;2022-07-10T08:07:20;91399.47;;;17.76
71807;BMP280;59655;42.590;23.364;2022-07-10T08:09:45;91401.00;;;17.79
71807;BMP280;59655;42.590;23.364;2022-07-10T08:12:10;91402.50;;;17.82
71807;BMP280;59655;42.590;23.364;2022-07-10T08:14:36;91403.69;;;17.79
71807;BMP280;59655;42.590;23.364;2022-07-10T08:17:01;91399.69;;;17.80
71807;BMP280;59655;42.590;23.364;2022-07-10T08:19:27;91399.34;;;17.86
71807;BMP280;59655;42.590;23.364;2022-07-10T08:21:53;91402.84;;;17.88
71807;BMP280;59655;42.590;23.364;2022-07-10T08:24:18;91412.53;;;17.93
71807;BMP280;59655;42.590;23.364;2022-07-10T08:26:44;91414.88;;;17.99
71807;BMP280;59655;42.590;23.364;2022-07-10T08:29:12;91404.56;;;17.95
71807;BMP280;59655;42.590;23.364;2022-07-10T08:31:38;91406.56;;;18.07
71807;BMP280;59655;42.590;23.364;2022-07-10T08:34:05;91408.66;;;18.08
71807;BMP280;59655;42.590;23.364;2022-07-10T08:36:31;91411.78;;;18.16
71807;BMP280;59655;42.590;23.364;2022-07-10T08:38:56;91413.66;;;18.14
71807;BMP280;59655;42.590;23.364;2022-07-10T08:41:26;91418.31;;;18.13
71807;BMP280;59655;42.590;23.364;2022-07-10T08:43:52;91413.56;;;18.12
71807;BMP280;59655;42.590;23.364;2022-07-10T08:46:18;91411.50;;;18.24
71807;BMP280;59655;42.590;23.364;2022-07-10T08:48:48;91415.00;;;18.27
71807;BMP280;59655;42.590;23.364;2022-07-10T08:51:24;91418.72;;;18.33
71807;BMP280;59655;42.590;23.364;2022-07-10T08:53:51;91418.72;;;18.33
71807;BMP280;59655;42.590;23.364;2022-07-10T08:56:16;91412.63;;;18.45
71807;BMP280;59655;42.590;23.364;2022-07-10T08:58:42;91419.47;;;18.48
71807;BMP280;59655;42.590;23.364;2022-07-10T09:01:07;91406.03;;;18.48
71807;BMP280;59655;42.590;23.364;2022-07-10T09:03:34;91412.50;;;18.42
71807;BMP280;59655;42.590;23.364;2022-07-10T09:06:04;91407.63;;;18.39
71807;BMP280;59655;42.590;23.364;2022-07-10T09:08:30;91404.13;;;18.36
71807;BMP280;59655;42.590;23.364;2022-07-10T09:11:17;91401.88;;;18.45
71807;BMP280;59655;42.590;23.364;2022-07-10T09:13:52;91409.66;;;18.52
71807;BMP280;59655;42.590;23.364;2022-07-10T09:16:25;91399.31;;;18.47
71807;BMP280;59655;42.590;23.364;2022-07-10T09:18:52;91396.50;;;18.45
71807;BMP280;59655;42.590;23.364;2022-07-10T09:21:17;91397.31;;;18.47
71807;BMP280;59655;42.590;23.364;2022-07-10T09:23:44;91404.41;;;18.54
71807;BMP280;59655;42.590;23.364;2022-07-10T09:26:10;91404.81;;;18.62
71807;BMP280;59655;42.590;23.364;2022-07-10T09:28:35;91397.25;;;18.59
71807;BMP280;59655;42.590;23.364;2022-07-10T09:31:01;91408.91;;;18.63
71807;BMP280;59655;42.590;23.364;2022-07-10T09:33:32;91407.25;;;18.70
71807;BMP280;59655;42.590;23.364;2022-07-10T09:36:04;91395.41;;;18.75
71807;BMP280;59655;42.590;23.364;2022-07-10T09:44:12;91391.16;;;18.84
71807;BMP280;59655;42.590;23.364;2022-07-10T09:46:39;91401.09;;;18.81
71807;BMP280;59655;42.590;23.364;2022-07-10T09:49:10;91388.16;;;18.78
71807;BMP280;59655;42.590;23.364;2022-07-10T09:51:40;91385.28;;;18.87
71807;BMP280;59655;42.590;23.364;2022-07-10T09:54:08;91393.97;;;19.00
71807;BMP280;59655;42.590;23.364;2022-07-10T09:56:48;91380.94;;;19.08
71807;BMP280;59655;42.590;23.364;2022-07-10T09:59:18;91393.28;;;19.13
71807;BMP280;59655;42.590;23.364;2022-07-10T10:01:45;91392.72;;;19.15
71807;BMP280;59655;42.590;23.364;2022-07-10T10:04:14;91391.94;;;19.12
71807;BMP280;59655;42.590;23.364;2022-07-10T10:06:42;91384.16;;;19.18
71807;BMP280;59655;42.590;23.364;2022-07-10T10:11:57;91395.91;;;19.25
71807;BMP280;59655;42.590;23.364;2022-07-10T10:14:25;91388.44;;;19.23
71807;BMP280;59655;42.590;23.364;2022-07-10T10:16:54;91383.97;;;19.28
71807;BMP280;59655;42.590;23.364;2022-07-10T10:19:23;91384.34;;;19.36
71807;BMP280;59655;42.590;23.364;2022-07-10T10:22:07;91379.28;;;19.42
71807;BMP280;59655;42.590;23.364;2022-07-10T10:24:33;91377.81;;;19.53
71807;BMP280;59655;42.590;23.364;2022-07-10T10:27:00;91379.69;;;19.50
71807;BMP280;59655;42.590;23.364;2022-07-10T10:29:26;91374.81;;;19.47
71807;BMP280;59655;42.590;23.364;2022-07-10T10:31:52;91370.31;;;19.51
71807;BMP280;59655;42.590;23.364;2022-07-10T10:37:05;91360.63;;;19.46
71807;BMP280;59655;42.590;23.364;2022-07-10T10:39:51;91367.59;;;19.65
71807;BMP280;59655;42.590;23.364;2022-07-10T10:42:41;91363.63;;;19.66
71807;BMP280;59655;42.590;23.364;2022-07-10T10:47:59;91373.38;;;19.73
71807;BMP280;59655;42.590;23.364;2022-07-10T10:50:49;91375.47;;;19.89
71807;BMP280;59655;42.590;23.364;2022-07-10T10:58:26;91368.22;;;20.07
71807;BMP280;59655;42.590;23.364;2022-07-10T11:00:52;91367.56;;;20.06
71807;BMP280;59655;42.590;23.364;2022-07-10T11:03:19;91376.00;;;20.15
71807;BMP280;59655;42.590;23.364;2022-07-10T11:05:47;91366.63;;;20.16
71807;BMP280;59655;42.590;23.364;2022-07-10T11:08:13;91372.81;;;20.18
71807;BMP280;59655;42.590;23.364;2022-07-10T11:10:42;91367.84;;;20.28
71807;BMP280;59655;42.590;23.364;2022-07-10T11:13:15;91362.28;;;20.24
71807;BMP280;59655;42.590;23.364;2022-07-10T11:15:43;91355.72;;;20.27
71807;BMP280;59655;42.590;23.364;2022-07-10T11:18:16;91360.91;;;20.23
71807;BMP280;59655;42.590;23.364;2022-07-10T11:20:46;91362.91;;;20.23
71807;BMP280;59655;42.590;23.364;2022-07-10T11:25:51;91366.50;;;20.27
71807;BMP280;59655;42.590;23.364;2022-07-10T11:28:35;91366.66;;;20.32
71807;BMP280;59655;42.590;23.364;2022-07-10T11:31:06;91359.88;;;20.46
71807;BMP280;59655;42.590;23.364;2022-07-10T11:33:39;91357.31;;;20.48
71807;BMP280;59655;42.590;23.364;2022-07-10T11:36:10;91347.81;;;20.47
71807;BMP280;59655;42.590;23.364;2022-07-10T11:38:37;91359.47;;;20.52
71807;BMP280;59655;42.590;23.364;2022-07-10T11:41:04;91345.97;;;20.66
71807;BMP280;59655;42.590;23.364;2022-07-10T11:43:29;91353.56;;;20.71
71807;BMP280;59655;42.590;23.364;2022-07-10T11:45:55;91355.69;;;20.73
71807;BMP280;59655;42.590;23.364;2022-07-10T11:48:24;91353.50;;;20.69
71807;BMP280;59655;42.590;23.364;2022-07-10T11:50:51;91352.56;;;20.78
71807;BMP280;59655;42.590;23.364;2022-07-10T11:53:24;91360.38;;;20.88
71807;BMP280;59655;42.590;23.364;2022-07-10T11:55:49;91362.31;;;20.86
71807;BMP280;59655;42.590;23.364;2022-07-10T11:58:16;91363.19;;;21.06
71807;BMP280;59655;42.590;23.364;2022-07-10T12:00:42;91363.19;;;21.06
71807;BMP280;59655;42.590;23.364;2022-07-10T12:03:19;91370.66;;;21.08
71807;BMP280;59655;42.590;23.364;2022-07-10T12:05:45;91371.78;;;20.87
71807;BMP280;59655;42.590;23.364;2022-07-10T12:08:11;91375.06;;;20.69
71807;BMP280;59655;42.590;23.364;2022-07-10T12:10:38;91367.53;;;20.82
71807;BMP280;59655;42.590;23.364;2022-07-10T12:13:13;91368.28;;;20.84
71807;BMP280;59655;42.590;23.364;2022-07-10T12:15:44;91366.66;;;20.93
71807;BMP280;59655;42.590;23.364;2022-07-10T12:18:20;91371.09;;;21.02
71807;BMP280;59655;42.590;23.364;2022-07-10T12:20:47;91361.00;;;21.02
71807;BMP280;59655;42.590;23.364;2022-07-10T12:23:18;91380.31;;;20.97
71807;BMP280;59655;42.590;23.364;2022-07-10T12:25:45;91366.75;;;20.95
71807;BMP280;59655;42.590;23.364;2022-07-10T12:28:12;91362.22;;;20.99
71807;BMP280;59655;42.590;23.364;2022-07-10T12:30:39;91350.31;;;21.05
71807;BMP280;59655;42.590;23.364;2022-07-10T12:33:09;91353.44;;;20.99
71807;BMP280;59655;42.590;23.364;2022-07-10T12:35:56;91353.78;;;21.07
71807;BMP280;59655;42.590;23.364;2022-07-10T12:38:28;91356.38;;;21.05
71807;BMP280;59655;42.590;23.364;2022-07-10T12:41:13;91354.19;;;21.01
71807;BMP280;59655;42.590;23.364;2022-07-10T12:43:39;91356.91;;;21.01
71807;BMP280;59655;42.590;23.364;2022-07-10T12:46:24;91362.03;;;21.11
71807;BMP280;59655;42.590;23.364;2022-07-10T12:49:06;91354.13;;;21.15
71807;BMP280;59655;42.590;23.364;2022-07-10T12:51:52;91355.00;;;21.20
71807;BMP280;59655;42.590;23.364;2022-07-10T12:54:37;91353.16;;;21.24
71807;BMP280;59655;42.590;23.364;2022-07-10T12:57:04;91356.97;;;21.35
71807;BMP280;59655;42.590;23.364;2022-07-10T12:59:33;91345.44;;;21.35
71807;BMP280;59655;42.590;23.364;2022-07-10T13:02:14;91348.78;;;21.17
71807;BMP280;59655;42.590;23.364;2022-07-10T13:04:51;91344.56;;;21.12
71807;BMP280;59655;42.590;23.364;2022-07-10T13:07:17;91362.56;;;21.23
71807;BMP280;59655;42.590;23.364;2022-07-10T13:09:42;91359.56;;;21.17
71807;BMP280;59655;42.590;23.364;2022-07-10T13:12:10;91347.41;;;21.16
71807;BMP280;59655;42.590;23.364;2022-07-10T13:14:36;91356.44;;;21.23
71807;BMP280;59655;42.590;23.364;2022-07-10T13:17:01;91359.25;;;21.41
71807;BMP280;59655;42.590;23.364;2022-07-10T13:19:27;91354.47;;;21.57
71807;BMP280;59655;42.590;23.364;2022-07-10T13:21:52;91354.81;;;21.65
71807;BMP280;59655;42.590;23.364;2022-07-10T13:24:18;91345.28;;;21.98
71807;BMP280;59655;42.590;23.364;2022-07-10T13:26:43;91348.53;;;22.50
71807;BMP280;59655;42.590;23.364;2022-07-10T13:29:08;91346.78;;;23.14
71807;BMP280;59655;42.590;23.364;2022-07-10T13:31:34;91346.56;;;22.88
71807;BMP280;59655;42.590;23.364;2022-07-10T13:33:59;91349.66;;;23.01
71807;BMP280;59655;42.590;23.364;2022-07-10T13:36:25;91344.88;;;22.79
71807;BMP280;59655;42.590;23.364;2022-07-10T13:38:50;91345.13;;;22.67
71807;BMP280;59655;42.590;23.364;2022-07-10T13:41:17;91358.78;;;22.34
71807;BMP280;59655;42.590;23.364;2022-07-10T13:43:43;91355.84;;;22.10
71807;BMP280;59655;42.590;23.364;2022-07-10T13:46:08;91357.94;;;21.93
71807;BMP280;59655;42.590;23.364;2022-07-10T13:48:34;91353.97;;;21.79
71807;BMP280;59655;42.590;23.364;2022-07-10T13:50:59;91353.09;;;21.56
71807;BMP280;59655;42.590;23.364;2022-07-10T13:53:25;91356.22;;;21.66
71807;BMP280;59655;42.590;23.364;2022-07-10T13:55:52;91368.47;;;21.69
71807;BMP280;59655;42.590;23.364;2022-07-10T13:58:18;91359.72;;;21.53
71807;BMP280;59655;42.590;23.364;2022-07-10T14:00:45;91355.44;;;21.64
71807;BMP280;59655;42.590;23.364;2022-07-10T14:03:10;91360.13;;;21.63
71807;BMP280;59655;42.590;23.364;2022-07-10T14:05:36;91354.38;;;21.55
71807;BMP280;59655;42.590;23.364;2022-07-10T14:08:02;91357.41;;;21.63
71807;BMP280;59655;42.590;23.364;2022-07-10T14:10:28;91361.81;;;21.55
71807;BMP280;59655;42.590;23.364;2022-07-10T14:12:54;91356.88;;;21.67
71807;BMP280;59655;42.590;23.364;2022-07-10T14:15:20;91358.38;;;21.88
71807;BMP280;59655;42.590;23.364;2022-07-10T14:17:45;91360.78;;;22.15
71807;BMP280;59655;42.590;23.364;2022-07-10T14:20:11;91353.69;;;22.80